sensor_id;sensor_type;location;lat;lon;timestamp;P1;durP1;ratioP1;P2;durP2;ratioP2
11123;SDS011;5616;42.692;23.312;2023-03-17T00:07:49;4.93;;;4.40;;
11123;SDS011;5616;42.692;23.312;2023-03-17T00:10:18;6.07;;;4.73;;
11123;SDS011;5616;42.692;23.312;2023-03-17T00:12:47;5.17;;;4.63;;
11123;SDS011;5616;42.692;23.312;2023-03-17T00:15:14;5.88;;;5.35;;
11123;SDS011;5616;42.692;23.312;2023-03-17T00:17:42;5.80;;;5.30;;
11123;SDS011;5616;42.692;23.312;2023-03-17T00:20:10;5.27;;;4.77;;
11123;SDS011;5616;42.692;23.312;2023-03-17T00:22:41;5.63;;;4.70;;
11123;SDS011;5616;42.692;23.312;2023-03-17T00:25:17;5.30;;;4.80;;
11123;SDS011;5616;42.692;23.312;2023-03-17T00:27:46;5.73;;;4.80;;
11123;SDS011;5616;42.692;23.312;2023-03-17T00:30:13;6.57;;;5.23;;
11123;SDS011;5616;42.692;23.312;2023-03-17T00:32:42;5.00;;;4.47;;
11123;SDS011;5616;42.692;23.312;2023-03-17T00:35:15;5.40;;;4.90;;
11123;SDS011;5616;42.692;23.312;2023-03-17T00:37:44;5.07;;;4.50;;
11123;SDS011;5616;42.692;23.312;2023-03-17T00:40:18;5.40;;;4.90;;
11123;SDS011;5616;42.692;23.312;2023-03-17T00:42:47;5.40;;;4.90;;
11123;SDS011;5616;42.692;23.312;2023-03-17T00:45:15;5.63;;;5.07;;
11123;SDS011;5616;42.692;23.312;2023-03-17T00:47:43;6.37;;;5.30;;
11123;SDS011;5616;42.692;23.312;2023-03-17T00:50:11;7.17;;;5.27;;
11123;SDS011;5616;42.692;23.312;2023-03-17T00:52:40;5.30;;;4.80;;
11123;SDS011;5616;42.692;23.312;2023-03-17T00:55:08;6.40;;;4.90;;
11123;SDS011;5616;42.692;23.312;2023-03-17T00:57:37;5.50;;;4.83;;
11123;SDS011;5616;42.692;23.312;2023-03-17T01:00:06;5.00;;;4.60;;
11123;SDS011;5616;42.692;23.312;2023-03-17T01:02:43;5.73;;;4.50;;
11123;SDS011;5616;42.692;23.312;2023-03-17T01:05:11;4.33;;;3.93;;
11123;SDS011;5616;42.692;23.312;2023-03-17T01:07:39;5.20;;;4.70;;
11123;SDS011;5616;42.692;23.312;2023-03-17T01:10:12;4.97;;;4.53;;
11123;SDS011;5616;42.692;23.312;2023-03-17T01:12:43;5.20;;;4.70;;
11123;SDS011;5616;42.692;23.312;2023-03-17T01:15:11;4.93;;;4.20;;
11123;SDS011;5616;42.692;23.312;2023-03-17T01:17:39;4.70;;;4.30;;
11123;SDS011;5616;42.692;23.312;2023-03-17T01:20:07;4.67;;;4.27;;
11123;SDS011;5616;42.692;23.312;2023-03-17T01:22:41;5.03;;;4.50;;
11123;SDS011;5616;42.692;23.312;2023-03-17T01:25:08;4.70;;;4.27;;
11123;SDS011;5616;42.692;23.312;2023-03-17T01:27:35;4.80;;;4.40;;
11123;SDS011;5616;42.692;23.312;2023-03-17T01:30:04;4.73;;;4.20;;
11123;SDS011;5616;42.692;23.312;2023-03-17T01:32:34;5.33;;;4.47;;
11123;SDS011;5616;42.692;23.312;2023-03-17T01:35:01;4.73;;;4.27;;
11123;SDS011;5616;42.692;23.312;2023-03-17T01:37:29;5.27;;;4.77;;
11123;SDS011;5616;42.692;23.312;2023-03-17T01:39:56;4.70;;;4.30;;
11123;SDS011;5616;42.692;23.312;2023-03-17T01:42:23;6.23;;;4.50;;
11123;SDS011;5616;42.692;23.312;2023-03-17T01:44:58;4.40;;;4.00;;
11123;SDS011;5616;42.692;23.312;2023-03-17T01:47:27;4.77;;;4.37;;
11123;SDS011;5616;42.692;23.312;2023-03-17T01:49:57;5.47;;;4.40;;
11123;SDS011;5616;42.692;23.312;2023-03-17T01:52:26;4.67;;;4.23;;
11123;SDS011;5616;42.692;23.312;2023-03-17T01:54:55;4.80;;;4.30;;
11123;SDS011;5616;42.692;23.312;2023-03-17T01:57:26;4.93;;;4.43;;
11123;SDS011;5616;42.692;23.312;2023-03-17T01:59:58;5.33;;;4.43;;
11123;SDS011;5616;42.692;23.312;2023-03-17T02:02:39;4.83;;;4.33;;
11123;SDS011;5616;42.692;23.312;2023-03-17T02:05:09;5.30;;;4.50;;
11123;SDS011;5616;42.692;23.312;2023-03-17T02:07:39;4.43;;;4.03;;
11123;SDS011;5616;42.692;23.312;2023-03-17T02:10:07;4.50;;;4.10;;
11123;SDS011;5616;42.692;23.312;2023-03-17T02:12:36;5.30;;;3.90;;
11123;SDS011;5616;42.692;23.312;2023-03-17T02:15:04;4.67;;;4.27;;
11123;SDS011;5616;42.692;23.312;2023-03-17T02:17:32;4.93;;;4.17;;
11123;SDS011;5616;42.692;23.312;2023-03-17T02:20:12;4.47;;;4.00;;
11123;SDS011;5616;42.692;23.312;2023-03-17T02:23:00;4.30;;;3.90;;
11123;SDS011;5616;42.692;23.312;2023-03-17T02:25:28;4.97;;;4.33;;
11123;SDS011;5616;42.692;23.312;2023-03-17T02:27:56;4.43;;;4.03;;
11123;SDS011;5616;42.692;23.312;2023-03-17T02:30:26;4.87;;;4.20;;
11123;SDS011;5616;42.692;23.312;2023-03-17T02:32:54;4.47;;;3.97;;
11123;SDS011;5616;42.692;23.312;2023-03-17T02:35:21;4.10;;;3.70;;
11123;SDS011;5616;42.692;23.312;2023-03-17T02:37:48;4.47;;;4.07;;
11123;SDS011;5616;42.692;23.312;2023-03-17T02:42:44;4.27;;;3.87;;
11123;SDS011;5616;42.692;23.312;2023-03-17T02:45:11;4.33;;;3.93;;
11123;SDS011;5616;42.692;23.312;2023-03-17T02:47:38;5.80;;;4.33;;
11123;SDS011;5616;42.692;23.312;2023-03-17T02:50:07;4.83;;;4.33;;
11123;SDS011;5616;42.692;23.312;2023-03-17T02:52:35;5.10;;;4.60;;
11123;SDS011;5616;42.692;23.312;2023-03-17T02:55:02;5.73;;;4.50;;
11123;SDS011;5616;42.692;23.312;2023-03-17T02:57:31;4.70;;;4.27;;
11123;SDS011;5616;42.692;23.312;2023-03-17T02:59:58;4.50;;;4.10;;
11123;SDS011;5616;42.692;23.312;2023-03-17T03:02:25;5.57;;;4.80;;
11123;SDS011;5616;42.692;23.312;2023-03-17T03:04:51;4.77;;;4.37;;
11123;SDS011;5616;42.692;23.312;2023-03-17T03:07:18;6.83;;;4.60;;
11123;SDS011;5616;42.692;23.312;2023-03-17T03:09:47;5.20;;;4.50;;
11123;SDS011;5616;42.692;23.312;2023-03-17T03:12:14;4.97;;;4.57;;
11123;SDS011;5616;42.692;23.312;2023-03-17T03:14:42;5.53;;;4.80;;
11123;SDS011;5616;42.692;23.312;2023-03-17T03:17:09;5.63;;;4.83;;
11123;SDS011;5616;42.692;23.312;2023-03-17T03:19:36;5.07;;;4.57;;
11123;SDS011;5616;42.692;23.312;2023-03-17T03:22:03;5.00;;;4.50;;
11123;SDS011;5616;42.692;23.312;2023-03-17T03:24:30;4.87;;;4.33;;
11123;SDS011;5616;42.692;23.312;2023-03-17T03:26:57;5.57;;;4.63;;
11123;SDS011;5616;42.692;23.312;2023-03-17T03:29:24;5.67;;;4.70;;
11123;SDS011;5616;42.692;23.312;2023-03-17T03:31:52;5.37;;;4.50;;
11123;SDS011;5616;42.692;23.312;2023-03-17T03:34:19;5.17;;;4.50;;
11123;SDS011;5616;42.692;23.312;2023-03-17T03:36:46;4.53;;;4.13;;
11123;SDS011;5616;42.692;23.312;2023-03-17T03:39:13;4.30;;;3.90;;
11123;SDS011;5616;42.692;23.312;2023-03-17T03:41:40;4.70;;;4.20;;
11123;SDS011;5616;42.692;23.312;2023-03-17T03:44:06;4.97;;;4.30;;
11123;SDS011;5616;42.692;23.312;2023-03-17T03:46:33;4.60;;;4.20;;
11123;SDS011;5616;42.692;23.312;2023-03-17T03:49:01;4.53;;;4.13;;
11123;SDS011;5616;42.692;23.312;2023-03-17T03:51:28;4.27;;;3.87;;
11123;SDS011;5616;42.692;23.312;2023-03-17T03:53:55;4.37;;;3.97;;
11123;SDS011;5616;42.692;23.312;2023-03-17T03:56:22;4.20;;;3.80;;
11123;SDS011;5616;42.692;23.312;2023-03-17T03:58:49;4.43;;;4.03;;
11123;SDS011;5616;42.692;23.312;2023-03-17T04:01:15;4.47;;;4.07;;
11123;SDS011;5616;42.692;23.312;2023-03-17T04:03:43;5.10;;;4.60;;
11123;SDS011;5616;42.692;23.312;2023-03-17T04:06:12;5.10;;;4.10;;
11123;SDS011;5616;42.692;23.312;2023-03-17T04:08:40;5.03;;;4.53;;
11123;SDS011;5616;42.692;23.312;2023-03-17T04:11:07;5.00;;;4.50;;
11123;SDS011;5616;42.692;23.312;2023-03-17T04:13:34;5.03;;;4.50;;
11123;SDS011;5616;42.692;23.312;2023-03-17T04:16:01;4.90;;;4.43;;
11123;SDS011;5616;42.692;23.312;2023-03-17T04:18:27;4.87;;;4.40;;
11123;SDS011;5616;42.692;23.312;2023-03-17T04:20:55;5.17;;;4.67;;
11123;SDS011;5616;42.692;23.312;2023-03-17T04:23:23;5.17;;;4.67;;
11123;SDS011;5616;42.692;23.312;2023-03-17T04:25:50;5.43;;;4.93;;
11123;SDS011;5616;42.692;23.312;2023-03-17T04:28:17;5.00;;;4.50;;
11123;SDS011;5616;42.692;23.312;2023-03-17T04:30:44;5.00;;;4.50;;
11123;SDS011;5616;42.692;23.312;2023-03-17T04:33:11;6.27;;;4.93;;
11123;SDS011;5616;42.692;23.312;2023-03-17T04:35:38;5.40;;;4.83;;
11123;SDS011;5616;42.692;23.312;2023-03-17T04:38:05;6.13;;;5.50;;
11123;SDS011;5616;42.692;23.312;2023-03-17T04:40:34;6.00;;;5.40;;
11123;SDS011;5616;42.692;23.312;2023-03-17T04:43:00;7.23;;;4.77;;
11123;SDS011;5616;42.692;23.312;2023-03-17T04:45:27;6.57;;;5.37;;
11123;SDS011;5616;42.692;23.312;2023-03-17T04:47:54;6.73;;;5.13;;
11123;SDS011;5616;42.692;23.312;2023-03-17T04:50:21;5.90;;;5.13;;
11123;SDS011;5616;42.692;23.312;2023-03-17T04:52:48;6.57;;;4.73;;
11123;SDS011;5616;42.692;23.312;2023-03-17T04:55:14;6.70;;;5.53;;
11123;SDS011;5616;42.692;23.312;2023-03-17T04:57:43;5.77;;;4.90;;
11123;SDS011;5616;42.692;23.312;2023-03-17T05:00:10;5.50;;;5.00;;
11123;SDS011;5616;42.692;23.312;2023-03-17T05:02:39;6.23;;;4.70;;
11123;SDS011;5616;42.692;23.312;2023-03-17T05:05:06;5.83;;;5.00;;
11123;SDS011;5616;42.692;23.312;2023-03-17T05:07:34;4.60;;;4.20;;
11123;SDS011;5616;42.692;23.312;2023-03-17T05:10:00;5.00;;;4.50;;
11123;SDS011;5616;42.692;23.312;2023-03-17T05:12:27;5.10;;;4.40;;
11123;SDS011;5616;42.692;23.312;2023-03-17T05:14:56;5.13;;;4.40;;
11123;SDS011;5616;42.692;23.312;2023-03-17T05:17:22;5.73;;;4.30;;
11123;SDS011;5616;42.692;23.312;2023-03-17T05:19:49;5.20;;;4.23;;
11123;SDS011;5616;42.692;23.312;2023-03-17T05:22:16;4.67;;;4.20;;
11123;SDS011;5616;42.692;23.312;2023-03-17T05:24:43;5.20;;;4.47;;
11123;SDS011;5616;42.692;23.312;2023-03-17T05:27:11;5.07;;;4.03;;
11123;SDS011;5616;42.692;23.312;2023-03-17T05:29:38;5.20;;;4.23;;
11123;SDS011;5616;42.692;23.312;2023-03-17T05:32:07;4.57;;;4.17;;
11123;SDS011;5616;42.692;23.312;2023-03-17T05:34:33;5.83;;;4.40;;
11123;SDS011;5616;42.692;23.312;2023-03-17T05:37:00;5.00;;;4.50;;
11123;SDS011;5616;42.692;23.312;2023-03-17T05:39:27;5.03;;;4.40;;
11123;SDS011;5616;42.692;23.312;2023-03-17T05:41:54;5.50;;;4.80;;
11123;SDS011;5616;42.692;23.312;2023-03-17T05:44:21;6.53;;;5.30;;
11123;SDS011;5616;42.692;23.312;2023-03-17T05:46:47;8.27;;;5.90;;
11123;SDS011;5616;42.692;23.312;2023-03-17T05:49:16;6.07;;;4.87;;
11123;SDS011;5616;42.692;23.312;2023-03-17T05:51:42;5.07;;;4.30;;
11123;SDS011;5616;42.692;23.312;2023-03-17T05:54:09;6.33;;;4.83;;
11123;SDS011;5616;42.692;23.312;2023-03-17T05:56:36;5.13;;;4.50;;
11123;SDS011;5616;42.692;23.312;2023-03-17T05:59:03;5.70;;;5.10;;
11123;SDS011;5616;42.692;23.312;2023-03-17T06:01:30;6.03;;;5.30;;
11123;SDS011;5616;42.692;23.312;2023-03-17T06:03:56;5.73;;;5.03;;
11123;SDS011;5616;42.692;23.312;2023-03-17T06:06:26;9.50;;;5.93;;
11123;SDS011;5616;42.692;23.312;2023-03-17T06:08:53;7.90;;;5.97;;
11123;SDS011;5616;42.692;23.312;2023-03-17T06:11:20;7.73;;;6.27;;
11123;SDS011;5616;42.692;23.312;2023-03-17T06:13:47;9.03;;;7.43;;
11123;SDS011;5616;42.692;23.312;2023-03-17T06:16:14;9.13;;;7.20;;
11123;SDS011;5616;42.692;23.312;2023-03-17T06:18:41;10.63;;;7.70;;
11123;SDS011;5616;42.692;23.312;2023-03-17T06:21:08;8.87;;;7.33;;
11123;SDS011;5616;42.692;23.312;2023-03-17T06:23:37;9.67;;;7.07;;
11123;SDS011;5616;42.692;23.312;2023-03-17T06:26:04;9.60;;;6.70;;
11123;SDS011;5616;42.692;23.312;2023-03-17T06:28:31;7.57;;;6.00;;
11123;SDS011;5616;42.692;23.312;2023-03-17T06:30:58;7.27;;;6.13;;
11123;SDS011;5616;42.692;23.312;2023-03-17T06:33:25;6.63;;;5.57;;
11123;SDS011;5616;42.692;23.312;2023-03-17T06:35:52;6.43;;;5.53;;
11123;SDS011;5616;42.692;23.312;2023-03-17T06:38:19;6.20;;;4.87;;
11123;SDS011;5616;42.692;23.312;2023-03-17T06:40:47;5.60;;;4.90;;
11123;SDS011;5616;42.692;23.312;2023-03-17T06:43:14;6.40;;;5.77;;
11123;SDS011;5616;42.692;23.312;2023-03-17T06:45:41;6.83;;;6.00;;
11123;SDS011;5616;42.692;23.312;2023-03-17T06:48:08;6.23;;;5.43;;
11123;SDS011;5616;42.692;23.312;2023-03-17T06:50:35;7.57;;;6.17;;
11123;SDS011;5616;42.692;23.312;2023-03-17T06:53:02;6.60;;;5.60;;
11123;SDS011;5616;42.692;23.312;2023-03-17T06:55:29;7.67;;;5.60;;
11123;SDS011;5616;42.692;23.312;2023-03-17T06:57:58;8.13;;;6.07;;
11123;SDS011;5616;42.692;23.312;2023-03-17T07:00:27;6.57;;;5.43;;
11123;SDS011;5616;42.692;23.312;2023-03-17T07:02:54;7.43;;;6.17;;
11123;SDS011;5616;42.692;23.312;2023-03-17T07:05:21;8.27;;;6.70;;
11123;SDS011;5616;42.692;23.312;2023-03-17T07:07:48;7.23;;;5.30;;
11123;SDS011;5616;42.692;23.312;2023-03-17T07:10:15;5.47;;;4.97;;
11123;SDS011;5616;42.692;23.312;2023-03-17T07:12:43;5.87;;;4.73;;
11123;SDS011;5616;42.692;23.312;2023-03-17T07:15:11;5.10;;;4.60;;
11123;SDS011;5616;42.692;23.312;2023-03-17T07:17:38;5.77;;;4.97;;
11123;SDS011;5616;42.692;23.312;2023-03-17T07:20:05;6.30;;;5.20;;
11123;SDS011;5616;42.692;23.312;2023-03-17T07:22:33;6.13;;;4.80;;
11123;SDS011;5616;42.692;23.312;2023-03-17T07:25:00;5.97;;;4.80;;
11123;SDS011;5616;42.692;23.312;2023-03-17T07:27:27;6.20;;;5.60;;
11123;SDS011;5616;42.692;23.312;2023-03-17T07:29:55;7.07;;;5.90;;
11123;SDS011;5616;42.692;23.312;2023-03-17T07:32:23;7.23;;;5.97;;
11123;SDS011;5616;42.692;23.312;2023-03-17T07:34:50;6.93;;;5.87;;
11123;SDS011;5616;42.692;23.312;2023-03-17T07:37:17;5.73;;;5.23;;
11123;SDS011;5616;42.692;23.312;2023-03-17T07:39:45;5.37;;;4.57;;
11123;SDS011;5616;42.692;23.312;2023-03-17T07:42:13;4.90;;;4.07;;
11123;SDS011;5616;42.692;23.312;2023-03-17T07:44:41;4.10;;;3.70;;
11123;SDS011;5616;42.692;23.312;2023-03-17T07:47:09;5.50;;;3.33;;
11123;SDS011;5616;42.692;23.312;2023-03-17T07:49:37;4.20;;;3.47;;
11123;SDS011;5616;42.692;23.312;2023-03-17T07:52:04;4.20;;;3.80;;
11123;SDS011;5616;42.692;23.312;2023-03-17T07:54:32;4.13;;;3.73;;
11123;SDS011;5616;42.692;23.312;2023-03-17T07:56:59;4.60;;;4.00;;
11123;SDS011;5616;42.692;23.312;2023-03-17T07:59:26;4.73;;;4.27;;
11123;SDS011;5616;42.692;23.312;2023-03-17T08:01:53;6.67;;;3.87;;
11123;SDS011;5616;42.692;23.312;2023-03-17T08:04:22;5.07;;;3.90;;
11123;SDS011;5616;42.692;23.312;2023-03-17T08:06:50;4.70;;;4.10;;
11123;SDS011;5616;42.692;23.312;2023-03-17T08:09:18;4.00;;;3.47;;
11123;SDS011;5616;42.692;23.312;2023-03-17T08:11:46;4.63;;;3.43;;
11123;SDS011;5616;42.692;23.312;2023-03-17T08:14:13;4.50;;;3.90;;
11123;SDS011;5616;42.692;23.312;2023-03-17T08:16:40;5.20;;;4.20;;
11123;SDS011;5616;42.692;23.312;2023-03-17T08:19:07;4.23;;;3.83;;
11123;SDS011;5616;42.692;23.312;2023-03-17T08:21:34;4.70;;;4.20;;
11123;SDS011;5616;42.692;23.312;2023-03-17T08:24:03;5.93;;;4.30;;
11123;SDS011;5616;42.692;23.312;2023-03-17T08:26:30;4.60;;;4.13;;
11123;SDS011;5616;42.692;23.312;2023-03-17T08:28:57;5.37;;;4.37;;
11123;SDS011;5616;42.692;23.312;2023-03-17T08:31:25;5.27;;;4.73;;
11123;SDS011;5616;42.692;23.312;2023-03-17T08:33:52;4.67;;;4.13;;
11123;SDS011;5616;42.692;23.312;2023-03-17T08:36:21;6.57;;;4.23;;
11123;SDS011;5616;42.692;23.312;2023-03-17T08:38:48;4.73;;;4.20;;
11123;SDS011;5616;42.692;23.312;2023-03-17T08:41:17;4.77;;;3.77;;
11123;SDS011;5616;42.692;23.312;2023-03-17T08:43:46;4.80;;;3.90;;
11123;SDS011;5616;42.692;23.312;2023-03-17T08:46:13;7.20;;;5.13;;
11123;SDS011;5616;42.692;23.312;2023-03-17T08:48:42;5.07;;;4.10;;
11123;SDS011;5616;42.692;23.312;2023-03-17T08:51:11;10.07;;;4.63;;
11123;SDS011;5616;42.692;23.312;2023-03-17T08:53:38;4.93;;;4.43;;
11123;SDS011;5616;42.692;23.312;2023-03-17T08:56:05;5.93;;;4.70;;
11123;SDS011;5616;42.692;23.312;2023-03-17T08:58:34;11.10;;;6.93;;
11123;SDS011;5616;42.692;23.312;2023-03-17T09:01:03;7.53;;;5.27;;
11123;SDS011;5616;42.692;23.312;2023-03-17T09:03:31;8.83;;;5.03;;
11123;SDS011;5616;42.692;23.312;2023-03-17T09:05:58;10.57;;;5.50;;
11123;SDS011;5616;42.692;23.312;2023-03-17T09:08:26;5.93;;;5.10;;
11123;SDS011;5616;42.692;23.312;2023-03-17T09:10:53;8.30;;;5.27;;
11123;SDS011;5616;42.692;23.312;2023-03-17T09:13:20;5.73;;;5.00;;
11123;SDS011;5616;42.692;23.312;2023-03-17T09:15:48;5.93;;;4.90;;
11123;SDS011;5616;42.692;23.312;2023-03-17T09:18:15;6.47;;;5.17;;
11123;SDS011;5616;42.692;23.312;2023-03-17T09:20:42;7.70;;;5.53;;
11123;SDS011;5616;42.692;23.312;2023-03-17T09:23:09;6.10;;;4.73;;
11123;SDS011;5616;42.692;23.312;2023-03-17T09:25:37;5.73;;;4.70;;
11123;SDS011;5616;42.692;23.312;2023-03-17T09:28:05;5.10;;;4.60;;
11123;SDS011;5616;42.692;23.312;2023-03-17T09:30:32;7.00;;;4.60;;
11123;SDS011;5616;42.692;23.312;2023-03-17T09:33:01;5.90;;;4.73;;
11123;SDS011;5616;42.692;23.312;2023-03-17T09:35:29;6.33;;;5.20;;
11123;SDS011;5616;42.692;23.312;2023-03-17T09:37:56;6.37;;;5.00;;
11123;SDS011;5616;42.692;23.312;2023-03-17T09:40:26;6.27;;;4.80;;
11123;SDS011;5616;42.692;23.312;2023-03-17T09:42:59;7.53;;;5.43;;
11123;SDS011;5616;42.692;23.312;2023-03-17T09:45:35;7.37;;;5.83;;
11123;SDS011;5616;42.692;23.312;2023-03-17T09:48:22;5.00;;;4.50;;
11123;SDS011;5616;42.692;23.312;2023-03-17T09:50:54;5.30;;;4.73;;
11123;SDS011;5616;42.692;23.312;2023-03-17T09:53:25;11.20;;;4.80;;
11123;SDS011;5616;42.692;23.312;2023-03-17T09:55:58;8.37;;;4.60;;
11123;SDS011;5616;42.692;23.312;2023-03-17T09:58:29;5.20;;;4.07;;
11123;SDS011;5616;42.692;23.312;2023-03-17T10:00:57;9.70;;;5.07;;
11123;SDS011;5616;42.692;23.312;2023-03-17T10:03:26;7.47;;;4.57;;
11123;SDS011;5616;42.692;23.312;2023-03-17T10:05:55;5.60;;;4.57;;
11123;SDS011;5616;42.692;23.312;2023-03-17T10:08:36;6.10;;;4.17;;
11123;SDS011;5616;42.692;23.312;2023-03-17T10:11:10;6.40;;;4.50;;
11123;SDS011;5616;42.692;23.312;2023-03-17T10:13:45;7.37;;;4.00;;
11123;SDS011;5616;42.692;23.312;2023-03-17T10:16:19;11.03;;;5.20;;
11123;SDS011;5616;42.692;23.312;2023-03-17T10:18:54;9.67;;;5.30;;
11123;SDS011;5616;42.692;23.312;2023-03-17T10:21:24;8.93;;;4.20;;
11123;SDS011;5616;42.692;23.312;2023-03-17T10:23:54;6.93;;;4.30;;
11123;SDS011;5616;42.692;23.312;2023-03-17T10:26:24;4.77;;;3.90;;
11123;SDS011;5616;42.692;23.312;2023-03-17T10:28:55;6.00;;;3.80;;
11123;SDS011;5616;42.692;23.312;2023-03-17T10:31:27;4.50;;;3.70;;
11123;SDS011;5616;42.692;23.312;2023-03-17T10:34:02;7.93;;;5.43;;
11123;SDS011;5616;42.692;23.312;2023-03-17T10:36:39;7.57;;;3.57;;
11123;SDS011;5616;42.692;23.312;2023-03-17T10:39:13;5.00;;;3.63;;
11123;SDS011;5616;42.692;23.312;2023-03-17T10:41:45;4.53;;;2.97;;
11123;SDS011;5616;42.692;23.312;2023-03-17T10:44:26;3.60;;;3.10;;
11123;SDS011;5616;42.692;23.312;2023-03-17T10:47:01;3.93;;;3.20;;
11123;SDS011;5616;42.692;23.312;2023-03-17T10:49:33;4.30;;;3.47;;
11123;SDS011;5616;42.692;23.312;2023-03-17T10:52:04;5.37;;;2.90;;
11123;SDS011;5616;42.692;23.312;2023-03-17T10:54:33;4.33;;;3.27;;
11123;SDS011;5616;42.692;23.312;2023-03-17T10:57:02;3.90;;;3.47;;
11123;SDS011;5616;42.692;23.312;2023-03-17T10:59:36;4.47;;;3.23;;
11123;SDS011;5616;42.692;23.312;2023-03-17T11:02:14;3.90;;;3.40;;
11123;SDS011;5616;42.692;23.312;2023-03-17T11:04:47;8.83;;;3.27;;
11123;SDS011;5616;42.692;23.312;2023-03-17T11:07:15;4.63;;;3.10;;
11123;SDS011;5616;42.692;23.312;2023-03-17T11:09:43;5.17;;;3.50;;
11123;SDS011;5616;42.692;23.312;2023-03-17T11:12:20;4.37;;;3.40;;
11123;SDS011;5616;42.692;23.312;2023-03-17T11:14:53;4.73;;;3.30;;
11123;SDS011;5616;42.692;23.312;2023-03-17T11:17:27;4.23;;;3.20;;
11123;SDS011;5616;42.692;23.312;2023-03-17T11:20:09;4.13;;;3.50;;
11123;SDS011;5616;42.692;23.312;2023-03-17T11:22:51;4.47;;;3.67;;
11123;SDS011;5616;42.692;23.312;2023-03-17T11:25:26;6.63;;;3.13;;
11123;SDS011;5616;42.692;23.312;2023-03-17T11:27:57;5.77;;;3.20;;
11123;SDS011;5616;42.692;23.312;2023-03-17T11:30:32;4.37;;;3.00;;
11123;SDS011;5616;42.692;23.312;2023-03-17T11:33:03;3.77;;;3.10;;
11123;SDS011;5616;42.692;23.312;2023-03-17T11:35:41;4.70;;;3.20;;
11123;SDS011;5616;42.692;23.312;2023-03-17T11:38:23;4.73;;;3.20;;
11123;SDS011;5616;42.692;23.312;2023-03-17T11:40:56;5.00;;;2.80;;
11123;SDS011;5616;42.692;23.312;2023-03-17T11:43:43;3.40;;;2.93;;
11123;SDS011;5616;42.692;23.312;2023-03-17T11:46:20;3.10;;;2.57;;
11123;SDS011;5616;42.692;23.312;2023-03-17T11:48:54;5.03;;;3.10;;
11123;SDS011;5616;42.692;23.312;2023-03-17T11:51:32;4.23;;;3.23;;
11123;SDS011;5616;42.692;23.312;2023-03-17T11:54:07;3.80;;;2.90;;
11123;SDS011;5616;42.692;23.312;2023-03-17T11:56:39;3.90;;;2.57;;
11123;SDS011;5616;42.692;23.312;2023-03-17T11:59:12;2.80;;;2.50;;
11123;SDS011;5616;42.692;23.312;2023-03-17T12:01:47;5.97;;;2.83;;
11123;SDS011;5616;42.692;23.312;2023-03-17T12:04:22;5.80;;;3.00;;
11123;SDS011;5616;42.692;23.312;2023-03-17T12:06:57;3.77;;;2.77;;
11123;SDS011;5616;42.692;23.312;2023-03-17T12:09:34;3.23;;;2.47;;
11123;SDS011;5616;42.692;23.312;2023-03-17T12:12:04;5.00;;;2.80;;
11123;SDS011;5616;42.692;23.312;2023-03-17T12:14:37;4.33;;;2.73;;
11123;SDS011;5616;42.692;23.312;2023-03-17T12:17:09;3.60;;;2.70;;
11123;SDS011;5616;42.692;23.312;2023-03-17T12:19:41;6.43;;;2.90;;
11123;SDS011;5616;42.692;23.312;2023-03-17T12:22:20;3.87;;;2.93;;
11123;SDS011;5616;42.692;23.312;2023-03-17T12:24:52;3.87;;;2.63;;
11123;SDS011;5616;42.692;23.312;2023-03-17T12:27:29;3.90;;;3.00;;
11123;SDS011;5616;42.692;23.312;2023-03-17T12:29:59;3.27;;;2.07;;
11123;SDS011;5616;42.692;23.312;2023-03-17T12:32:32;3.73;;;2.30;;
11123;SDS011;5616;42.692;23.312;2023-03-17T12:35:10;5.33;;;2.67;;
11123;SDS011;5616;42.692;23.312;2023-03-17T12:37:51;4.10;;;2.37;;
11123;SDS011;5616;42.692;23.312;2023-03-17T12:40:20;5.00;;;3.00;;
11123;SDS011;5616;42.692;23.312;2023-03-17T12:42:51;3.07;;;2.30;;
11123;SDS011;5616;42.692;23.312;2023-03-17T12:45:38;2.60;;;2.10;;
11123;SDS011;5616;42.692;23.312;2023-03-17T12:48:18;3.03;;;2.23;;
11123;SDS011;5616;42.692;23.312;2023-03-17T12:51:02;4.20;;;2.37;;
11123;SDS011;5616;42.692;23.312;2023-03-17T12:53:56;3.27;;;2.03;;
11123;SDS011;5616;42.692;23.312;2023-03-17T12:56:25;10.20;;;5.00;;
11123;SDS011;5616;42.692;23.312;2023-03-17T12:58:57;13.90;;;6.73;;
11123;SDS011;5616;42.692;23.312;2023-03-17T13:01:28;10.57;;;5.80;;
11123;SDS011;5616;42.692;23.312;2023-03-17T13:04:00;2.97;;;1.60;;
11123;SDS011;5616;42.692;23.312;2023-03-17T13:06:34;2.13;;;1.47;;
11123;SDS011;5616;42.692;23.312;2023-03-17T13:09:26;4.43;;;2.93;;
11123;SDS011;5616;42.692;23.312;2023-03-17T13:11:59;4.30;;;2.53;;
11123;SDS011;5616;42.692;23.312;2023-03-17T13:14:26;5.80;;;2.73;;
11123;SDS011;5616;42.692;23.312;2023-03-17T13:20:02;2.70;;;1.53;;
11123;SDS011;5616;42.692;23.312;2023-03-17T13:22:39;7.23;;;4.00;;
11123;SDS011;5616;42.692;23.312;2023-03-17T13:25:25;3.53;;;1.60;;
11123;SDS011;5616;42.692;23.312;2023-03-17T13:27:59;3.53;;;2.37;;
11123;SDS011;5616;42.692;23.312;2023-03-17T13:30:50;5.10;;;2.10;;
11123;SDS011;5616;42.692;23.312;2023-03-17T13:33:21;1.70;;;1.60;;
11123;SDS011;5616;42.692;23.312;2023-03-17T13:35:57;1.53;;;1.43;;
11123;SDS011;5616;42.692;23.312;2023-03-17T13:38:41;2.83;;;1.70;;
11123;SDS011;5616;42.692;23.312;2023-03-17T13:41:36;2.00;;;1.70;;
11123;SDS011;5616;42.692;23.312;2023-03-17T13:44:12;2.90;;;1.63;;
11123;SDS011;5616;42.692;23.312;2023-03-17T13:46:49;1.30;;;1.20;;
11123;SDS011;5616;42.692;23.312;2023-03-17T13:49:21;1.40;;;1.30;;
11123;SDS011;5616;42.692;23.312;2023-03-17T13:51:53;1.73;;;1.60;;
11123;SDS011;5616;42.692;23.312;2023-03-17T13:54:28;2.40;;;2.00;;
11123;SDS011;5616;42.692;23.312;2023-03-17T13:56:58;2.63;;;1.80;;
11123;SDS011;5616;42.692;23.312;2023-03-17T13:59:54;3.30;;;1.90;;
11123;SDS011;5616;42.692;23.312;2023-03-17T14:02:26;3.27;;;1.60;;
11123;SDS011;5616;42.692;23.312;2023-03-17T14:04:56;1.90;;;1.60;;
11123;SDS011;5616;42.692;23.312;2023-03-17T14:07:26;2.30;;;2.10;;
11123;SDS011;5616;42.692;23.312;2023-03-17T14:09:57;2.30;;;1.63;;
11123;SDS011;5616;42.692;23.312;2023-03-17T14:12:29;4.90;;;2.57;;
11123;SDS011;5616;42.692;23.312;2023-03-17T14:15:03;5.03;;;2.93;;
11123;SDS011;5616;42.692;23.312;2023-03-17T14:17:35;21.97;;;8.33;;
11123;SDS011;5616;42.692;23.312;2023-03-17T14:20:15;5.50;;;3.67;;
11123;SDS011;5616;42.692;23.312;2023-03-17T14:22:47;11.40;;;4.90;;
11123;SDS011;5616;42.692;23.312;2023-03-17T14:25:21;4.93;;;2.70;;
11123;SDS011;5616;42.692;23.312;2023-03-17T14:27:51;6.07;;;3.70;;
11123;SDS011;5616;42.692;23.312;2023-03-17T14:30:20;19.27;;;7.97;;
11123;SDS011;5616;42.692;23.312;2023-03-17T14:32:49;8.10;;;4.63;;
11123;SDS011;5616;42.692;23.312;2023-03-17T14:35:21;3.90;;;2.30;;
11123;SDS011;5616;42.692;23.312;2023-03-17T14:37:47;3.63;;;2.07;;
11123;SDS011;5616;42.692;23.312;2023-03-17T14:40:18;3.17;;;2.30;;
11123;SDS011;5616;42.692;23.312;2023-03-17T14:42:47;3.00;;;2.20;;
11123;SDS011;5616;42.692;23.312;2023-03-17T14:45:20;2.07;;;1.90;;
11123;SDS011;5616;42.692;23.312;2023-03-17T14:47:53;2.20;;;1.77;;
11123;SDS011;5616;42.692;23.312;2023-03-17T14:50:22;3.67;;;2.50;;
11123;SDS011;5616;42.692;23.312;2023-03-17T14:52:51;4.60;;;2.40;;
11123;SDS011;5616;42.692;23.312;2023-03-17T14:55:19;2.70;;;2.23;;
11123;SDS011;5616;42.692;23.312;2023-03-17T14:57:47;4.47;;;2.70;;
11123;SDS011;5616;42.692;23.312;2023-03-17T15:00:26;3.67;;;2.50;;
11123;SDS011;5616;42.692;23.312;2023-03-17T15:02:59;2.43;;;1.87;;
11123;SDS011;5616;42.692;23.312;2023-03-17T15:05:35;2.37;;;2.07;;
11123;SDS011;5616;42.692;23.312;2023-03-17T15:11:22;3.90;;;2.40;;
11123;SDS011;5616;42.692;23.312;2023-03-17T15:13:54;2.43;;;2.23;;
11123;SDS011;5616;42.692;23.312;2023-03-17T15:16:32;3.70;;;2.30;;
11123;SDS011;5616;42.692;23.312;2023-03-17T15:19:04;3.13;;;2.67;;
11123;SDS011;5616;42.692;23.312;2023-03-17T15:21:33;6.87;;;3.50;;